sensor_id;sensor_type;location;lat;lon;timestamp;pressure;altitude;pressure_sealevel;temperature;humidity
59939;BME280;45801;51.810;19.444;2023-11-21T00:01:20;98220.75;;;7.07;75.44
59939;BME280;45801;51.810;19.444;2023-11-21T00:03:46;98219.95;;;7.05;75.92
59939;BME280;45801;51.810;19.444;2023-11-21T00:06:13;98222.02;;;7.04;75.84
59939;BME280;45801;51.810;19.444;2023-11-21T00:08:41;98223.38;;;6.99;74.84
59939;BME280;45801;51.810;19.444;2023-11-21T00:11:07;98223.04;;;6.95;75.50
59939;BME280;45801;51.810;19.444;2023-11-21T00:13:34;98222.80;;;6.94;75.92
59939;BME280;45801;51.810;19.444;2023-11-21T00:16:01;98232.30;;;6.92;75.87
59939;BME280;45801;51.810;19.444;2023-11-21T00:18:28;98241.29;;;6.90;75.51
59939;BME280;45801;51.810;19.444;2023-11-21T00:20:54;98242.55;;;6.87;75.38
59939;BME280;45801;51.810;19.444;2023-11-21T00:23:21;98246.49;;;6.86;75.67
59939;BME280;45801;51.810;19.444;2023-11-21T00:25:48;98248.61;;;6.87;75.87
59939;BME280;45801;51.810;19.444;2023-11-21T00:28:15;98245.82;;;6.86;76.06
59939;BME280;45801;51.810;19.444;2023-11-21T00:30:42;98248.77;;;6.86;75.77
59939;BME280;45801;51.810;19.444;2023-11-21T00:33:09;98252.65;;;6.83;75.28
59939;BME280;45801;51.810;19.444;2023-11-21T00:35:35;98256.13;;;6.79;75.37
59939;BME280;45801;51.810;19.444;2023-11-21T00:38:02;98257.13;;;6.78;75.99
59939;BME280;45801;51.810;19.444;2023-11-21T00:40:29;98257.64;;;6.78;75.93
59939;BME280;45801;51.810;19.444;2023-11-21T00:42:57;98260.71;;;6.76;76.00
59939;BME280;45801;51.810;19.444;2023-11-21T00:45:23;98260.38;;;6.77;75.96
59939;BME280;45801;51.810;19.444;2023-11-21T00:47:50;98262.52;;;6.78;75.87
59939;BME280;45801;51.810;19.444;2023-11-21T00:50:17;98261.48;;;6.79;75.90
59939;BME280;45801;51.810;19.444;2023-11-21T00:52:43;98260.39;;;6.77;75.45
59939;BME280;45801;51.810;19.444;2023-11-21T00:55:10;98262.92;;;6.75;75.71
59939;BME280;45801;51.810;19.444;2023-11-21T00:57:38;98260.77;;;6.74;75.60
59939;BME280;45801;51.810;19.444;2023-11-21T01:00:05;98264.40;;;6.73;75.72
59939;BME280;45801;51.810;19.444;2023-11-21T01:02:44;98266.63;;;6.72;75.73
59939;BME280;45801;51.810;19.444;2023-11-21T01:05:12;98265.05;;;6.72;75.92
59939;BME280;45801;51.810;19.444;2023-11-21T01:07:38;98267.83;;;6.72;75.89
59939;BME280;45801;51.810;19.444;2023-11-21T01:10:05;98268.88;;;6.72;75.98
59939;BME280;45801;51.810;19.444;2023-11-21T01:12:37;98268.36;;;6.72;75.79
59939;BME280;45801;51.810;19.444;2023-11-21T01:15:05;98267.79;;;6.71;75.53
59939;BME280;45801;51.810;19.444;2023-11-21T01:17:34;98272.77;;;6.69;75.80
59939;BME280;45801;51.810;19.444;2023-11-21T01:20:02;98277.48;;;6.69;75.75
59939;BME280;45801;51.810;19.444;2023-11-21T01:22:32;98279.05;;;6.70;75.85
59939;BME280;45801;51.810;19.444;2023-11-21T01:24:59;98274.70;;;6.69;75.72
59939;BME280;45801;51.810;19.444;2023-11-21T01:27:25;98271.85;;;6.68;75.58
59939;BME280;45801;51.810;19.444;2023-11-21T01:29:53;98270.92;;;6.67;75.62
59939;BME280;45801;51.810;19.444;2023-11-21T01:32:20;98276.56;;;6.65;75.50
59939;BME280;45801;51.810;19.444;2023-11-21T01:34:47;98280.49;;;6.63;75.71
59939;BME280;45801;51.810;19.444;2023-11-21T01:37:14;98277.89;;;6.63;76.00
59939;BME280;45801;51.810;19.444;2023-11-21T01:39:41;98278.12;;;6.64;75.80
59939;BME280;45801;51.810;19.444;2023-11-21T01:42:08;98280.06;;;6.65;75.75
59939;BME280;45801;51.810;19.444;2023-11-21T01:44:34;98280.86;;;6.63;75.26
59939;BME280;45801;51.810;19.444;2023-11-21T01:47:02;98281.80;;;6.61;75.42
59939;BME280;45801;51.810;19.444;2023-11-21T01:49:35;98286.80;;;6.60;75.19
59939;BME280;45801;51.810;19.444;2023-11-21T01:52:03;98290.46;;;6.56;75.19
59939;BME280;45801;51.810;19.444;2023-11-21T01:54:31;98289.88;;;6.70;75.99
59939;BME280;45801;51.810;19.444;2023-11-21T01:56:59;98295.73;;;6.97;76.00
59939;BME280;45801;51.810;19.444;2023-11-21T01:59:34;98297.45;;;7.22;75.48
59939;BME280;45801;51.810;19.444;2023-11-21T02:02:01;98296.30;;;7.63;76.60
59939;BME280;45801;51.810;19.444;2023-11-21T02:04:28;98288.22;;;7.93;73.75
59939;BME280;45801;51.810;19.444;2023-11-21T02:06:54;98284.00;;;7.92;72.64
59939;BME280;45801;51.810;19.444;2023-11-21T02:09:26;98290.19;;;7.76;71.22
59939;BME280;45801;51.810;19.444;2023-11-21T02:11:55;98290.92;;;7.59;71.13
59939;BME280;45801;51.810;19.444;2023-11-21T02:14:23;98288.69;;;7.43;71.77
59939;BME280;45801;51.810;19.444;2023-11-21T02:16:52;98293.30;;;7.27;71.62
59939;BME280;45801;51.810;19.444;2023-11-21T02:19:20;98294.97;;;7.13;72.18
59939;BME280;45801;51.810;19.444;2023-11-21T02:21:50;98295.07;;;6.99;72.53
59939;BME280;45801;51.810;19.444;2023-11-21T02:24:19;98294.61;;;6.88;72.87
59939;BME280;45801;51.810;19.444;2023-11-21T02:26:47;98298.05;;;6.79;72.71
59939;BME280;45801;51.810;19.444;2023-11-21T02:29:14;98299.86;;;6.72;73.11
59939;BME280;45801;51.810;19.444;2023-11-21T02:31:44;98301.54;;;6.67;72.89
59939;BME280;45801;51.810;19.444;2023-11-21T02:34:17;98303.33;;;6.60;72.84
59939;BME280;45801;51.810;19.444;2023-11-21T02:36:47;98306.84;;;6.52;72.91
59939;BME280;45801;51.810;19.444;2023-11-21T02:39:18;98308.39;;;6.44;73.46
59939;BME280;45801;51.810;19.444;2023-11-21T02:41:48;98311.66;;;6.40;73.94
59939;BME280;45801;51.810;19.444;2023-11-21T02:44:15;98311.66;;;6.36;74.15
59939;BME280;45801;51.810;19.444;2023-11-21T02:46:42;98310.70;;;6.34;74.24
59939;BME280;45801;51.810;19.444;2023-11-21T02:49:09;98310.70;;;6.30;74.13
59939;BME280;45801;51.810;19.444;2023-11-21T02:51:39;98310.70;;;6.26;74.46
59939;BME280;45801;51.810;19.444;2023-11-21T02:54:06;98311.91;;;6.26;74.51
59939;BME280;45801;51.810;19.444;2023-11-21T02:56:34;98313.36;;;6.23;74.21
59939;BME280;45801;51.810;19.444;2023-11-21T02:59:01;98313.72;;;6.20;74.15
59939;BME280;45801;51.810;19.444;2023-11-21T03:01:28;98320.51;;;6.12;74.26
59939;BME280;45801;51.810;19.444;2023-11-21T03:03:54;98321.98;;;5.99;73.65
59939;BME280;45801;51.810;19.444;2023-11-21T03:06:22;98324.04;;;5.84;74.25
59939;BME280;45801;51.810;19.444;2023-11-21T03:08:50;98326.38;;;5.78;74.48
59939;BME280;45801;51.810;19.444;2023-11-21T03:11:17;98321.80;;;5.77;75.17
59939;BME280;45801;51.810;19.444;2023-11-21T03:13:44;98317.34;;;5.78;75.26
59939;BME280;45801;51.810;19.444;2023-11-21T03:16:11;98316.70;;;5.80;75.28
59939;BME280;45801;51.810;19.444;2023-11-21T03:18:39;98317.05;;;5.79;75.00
59939;BME280;45801;51.810;19.444;2023-11-21T03:21:08;98320.42;;;5.77;74.92
59939;BME280;45801;51.810;19.444;2023-11-21T03:23:36;98329.21;;;5.76;75.28
59939;BME280;45801;51.810;19.444;2023-11-21T03:26:03;98330.95;;;5.76;75.56
59939;BME280;45801;51.810;19.444;2023-11-21T03:28:30;98331.77;;;5.79;75.26
59939;BME280;45801;51.810;19.444;2023-11-21T03:30:57;98333.06;;;5.80;75.33
59939;BME280;45801;51.810;19.444;2023-11-21T03:33:23;98340.27;;;5.81;75.12
59939;BME280;45801;51.810;19.444;2023-11-21T03:35:50;98349.17;;;5.82;75.22
59939;BME280;45801;51.810;19.444;2023-11-21T03:38:19;98351.01;;;5.84;75.22
59939;BME280;45801;51.810;19.444;2023-11-21T03:40:46;98352.07;;;5.85;75.06
59939;BME280;45801;51.810;19.444;2023-11-21T03:43:13;98348.65;;;5.86;75.01
59939;BME280;45801;51.810;19.444;2023-11-21T03:45:40;98353.35;;;5.87;74.67
59939;BME280;45801;51.810;19.444;2023-11-21T03:48:07;98358.05;;;5.87;74.67
59939;BME280;45801;51.810;19.444;2023-11-21T03:50:35;98358.31;;;5.85;74.43
59939;BME280;45801;51.810;19.444;2023-11-21T03:53:02;98356.45;;;5.82;74.39
59939;BME280;45801;51.810;19.444;2023-11-21T03:55:28;98359.23;;;5.79;74.50
59939;BME280;45801;51.810;19.444;2023-11-21T03:57:55;98362.24;;;5.76;74.55
59939;BME280;45801;51.810;19.444;2023-11-21T04:00:24;98366.14;;;5.74;74.51
59939;BME280;45801;51.810;19.444;2023-11-21T04:02:51;98364.47;;;5.72;74.65
59939;BME280;45801;51.810;19.444;2023-11-21T04:05:20;98364.73;;;5.71;74.65
59939;BME280;45801;51.810;19.444;2023-11-21T04:07:49;98359.82;;;5.69;74.73
59939;BME280;45801;51.810;19.444;2023-11-21T04:10:16;98364.17;;;5.66;74.62
59939;BME280;45801;51.810;19.444;2023-11-21T04:12:43;98373.71;;;5.58;74.69
59939;BME280;45801;51.810;19.444;2023-11-21T04:15:11;98378.66;;;5.50;74.68
59939;BME280;45801;51.810;19.444;2023-11-21T04:17:40;98375.34;;;5.49;75.10
59939;BME280;45801;51.810;19.444;2023-11-21T04:20:08;98371.48;;;5.52;74.99
59939;BME280;45801;51.810;19.444;2023-11-21T04:22:44;98368.27;;;5.54;75.11
59939;BME280;45801;51.810;19.444;2023-11-21T04:25:11;98372.33;;;5.55;75.04
59939;BME280;45801;51.810;19.444;2023-11-21T04:27:40;98375.52;;;5.56;74.88
59939;BME280;45801;51.810;19.444;2023-11-21T04:30:07;98376.89;;;5.56;74.93
59939;BME280;45801;51.810;19.444;2023-11-21T04:32:34;98377.25;;;5.56;74.76
59939;BME280;45801;51.810;19.444;2023-11-21T04:35:00;98378.83;;;5.56;74.51
59939;BME280;45801;51.810;19.444;2023-11-21T04:37:27;98380.16;;;5.55;74.44
59939;BME280;45801;51.810;19.444;2023-11-21T04:39:54;98388.05;;;5.54;74.36
59939;BME280;45801;51.810;19.444;2023-11-21T04:42:21;98389.45;;;5.50;74.50
59939;BME280;45801;51.810;19.444;2023-11-21T04:44:49;98393.94;;;5.49;74.62
59939;BME280;45801;51.810;19.444;2023-11-21T04:47:16;98398.36;;;5.51;74.76
59939;BME280;45801;51.810;19.444;2023-11-21T04:49:42;98399.24;;;5.51;74.64
59939;BME280;45801;51.810;19.444;2023-11-21T04:52:10;98401.35;;;5.52;74.64
59939;BME280;45801;51.810;19.444;2023-11-21T04:54:37;98402.79;;;5.52;74.62
59939;BME280;45801;51.810;19.444;2023-11-21T04:57:03;98397.70;;;5.52;74.57
59939;BME280;45801;51.810;19.444;2023-11-21T04:59:34;98405.02;;;5.52;74.48
59939;BME280;45801;51.810;19.444;2023-11-21T05:02:02;98410.69;;;5.51;74.52
59939;BME280;45801;51.810;19.444;2023-11-21T05:04:29;98413.76;;;5.50;74.23
59939;BME280;45801;51.810;19.444;2023-11-21T05:06:56;98417.34;;;5.48;74.57
59939;BME280;45801;51.810;19.444;2023-11-21T05:09:23;98419.85;;;5.46;74.34
59939;BME280;45801;51.810;19.444;2023-11-21T05:11:49;98424.60;;;5.44;74.44
59939;BME280;45801;51.810;19.444;2023-11-21T05:14:16;98424.77;;;5.44;74.41
59939;BME280;45801;51.810;19.444;2023-11-21T05:16:45;98423.51;;;5.43;74.15
59939;BME280;45801;51.810;19.444;2023-11-21T05:19:12;98426.46;;;5.40;74.09
59939;BME280;45801;51.810;19.444;2023-11-21T05:21:39;98424.55;;;5.36;74.09
59939;BME280;45801;51.810;19.444;2023-11-21T05:24:06;98420.14;;;5.35;74.42
59939;BME280;45801;51.810;19.444;2023-11-21T05:26:33;98415.23;;;5.34;74.18
59939;BME280;45801;51.810;19.444;2023-11-21T05:29:00;98421.84;;;5.35;74.26
59939;BME280;45801;51.810;19.444;2023-11-21T05:31:26;98431.52;;;5.30;74.41
59939;BME280;45801;51.810;19.444;2023-11-21T05:33:53;98440.97;;;5.22;74.63
59939;BME280;45801;51.810;19.444;2023-11-21T05:36:20;98443.23;;;5.21;74.83
59939;BME280;45801;51.810;19.444;2023-11-21T05:38:46;98439.15;;;5.20;74.58
59939;BME280;45801;51.810;19.444;2023-11-21T05:41:13;98440.93;;;5.20;74.77
59939;BME280;45801;51.810;19.444;2023-11-21T05:43:40;98443.93;;;5.21;74.48
59939;BME280;45801;51.810;19.444;2023-11-21T05:46:07;98446.91;;;5.22;74.26
59939;BME280;45801;51.810;19.444;2023-11-21T05:48:35;98444.03;;;5.20;74.08
59939;BME280;45801;51.810;19.444;2023-11-21T05:51:06;98445.86;;;5.19;73.73
59939;BME280;45801;51.810;19.444;2023-11-21T05:53:33;98450.30;;;5.17;73.75
59939;BME280;45801;51.810;19.444;2023-11-21T05:56:00;98450.92;;;5.16;73.80
59939;BME280;45801;51.810;19.444;2023-11-21T05:58:26;98449.45;;;5.14;73.47
59939;BME280;45801;51.810;19.444;2023-11-21T06:00:53;98451.79;;;5.12;73.85
59939;BME280;45801;51.810;19.444;2023-11-21T06:03:20;98452.66;;;5.09;73.55
59939;BME280;45801;51.810;19.444;2023-11-21T06:05:47;98451.11;;;5.06;73.17
59939;BME280;45801;51.810;19.444;2023-11-21T06:08:14;98453.02;;;5.02;73.27
59939;BME280;45801;51.810;19.444;2023-11-21T06:10:43;98458.82;;;5.01;73.09
59939;BME280;45801;51.810;19.444;2023-11-21T06:13:10;98470.81;;;5.01;73.05
59939;BME280;45801;51.810;19.444;2023-11-21T06:15:37;98476.53;;;4.94;73.14
59939;BME280;45801;51.810;19.444;2023-11-21T06:18:03;98474.70;;;4.89;73.48
59939;BME280;45801;51.810;19.444;2023-11-21T06:20:31;98480.44;;;4.86;72.93
59939;BME280;45801;51.810;19.444;2023-11-21T06:23:00;98480.48;;;4.80;72.70
59939;BME280;45801;51.810;19.444;2023-11-21T06:25:29;98479.55;;;4.76;72.88
59939;BME280;45801;51.810;19.444;2023-11-21T06:27:59;98482.61;;;4.74;72.56
59939;BME280;45801;51.810;19.444;2023-11-21T06:30:26;98487.30;;;4.72;72.34
59939;BME280;45801;51.810;19.444;2023-11-21T06:32:52;98490.89;;;4.67;72.67
59939;BME280;45801;51.810;19.444;2023-11-21T06:35:19;98492.02;;;4.59;72.37
59939;BME280;45801;51.810;19.444;2023-11-21T06:37:46;98495.81;;;4.49;72.49
59939;BME280;45801;51.810;19.444;2023-11-21T06:40:14;98498.67;;;4.45;72.56
59939;BME280;45801;51.810;19.444;2023-11-21T06:42:41;98500.28;;;4.39;72.48
59939;BME280;45801;51.810;19.444;2023-11-21T06:45:08;98495.06;;;4.36;72.94
59939;BME280;45801;51.810;19.444;2023-11-21T06:47:38;98500.96;;;4.33;72.92
59939;BME280;45801;51.810;19.444;2023-11-21T06:50:05;98502.64;;;4.32;73.19
59939;BME280;45801;51.810;19.444;2023-11-21T06:52:33;98505.69;;;4.31;73.03
59939;BME280;45801;51.810;19.444;2023-11-21T06:54:59;98506.88;;;4.30;73.26
59939;BME280;45801;51.810;19.444;2023-11-21T06:57:27;98511.23;;;4.31;72.87
59939;BME280;45801;51.810;19.444;2023-11-21T06:59:54;98518.09;;;4.29;72.76
59939;BME280;45801;51.810;19.444;2023-11-21T07:02:20;98521.95;;;4.27;72.70
59939;BME280;45801;51.810;19.444;2023-11-21T07:04:49;98526.86;;;4.22;72.80
59939;BME280;45801;51.810;19.444;2023-11-21T07:07:16;98534.85;;;4.19;72.71
59939;BME280;45801;51.810;19.444;2023-11-21T07:09:43;98539.80;;;4.15;72.45
59939;BME280;45801;51.810;19.444;2023-11-21T07:12:09;98545.94;;;4.13;72.84
59939;BME280;45801;51.810;19.444;2023-11-21T07:14:37;98548.40;;;4.11;72.77
59939;BME280;45801;51.810;19.444;2023-11-21T07:17:06;98554.25;;;4.10;73.02
59939;BME280;45801;51.810;19.444;2023-11-21T07:19:33;98557.11;;;4.11;73.17
59939;BME280;45801;51.810;19.444;2023-11-21T07:22:00;98558.23;;;4.13;73.12
59939;BME280;45801;51.810;19.444;2023-11-21T07:24:27;98560.66;;;4.13;73.05
59939;BME280;45801;51.810;19.444;2023-11-21T07:26:53;98568.57;;;4.12;72.88
59939;BME280;45801;51.810;19.444;2023-11-21T07:29:23;98571.95;;;4.07;72.45
59939;BME280;45801;51.810;19.444;2023-11-21T07:31:53;98574.50;;;4.03;72.69
59939;BME280;45801;51.810;19.444;2023-11-21T07:34:21;98576.37;;;4.02;73.16
59939;BME280;45801;51.810;19.444;2023-11-21T07:36:48;98577.80;;;4.03;73.01
59939;BME280;45801;51.810;19.444;2023-11-21T07:39:15;98577.05;;;4.02;73.00
59939;BME280;45801;51.810;19.444;2023-11-21T07:41:42;98578.52;;;4.03;72.81
59939;BME280;45801;51.810;19.444;2023-11-21T07:44:15;98582.91;;;4.02;72.76
59939;BME280;45801;51.810;19.444;2023-11-21T07:46:43;98580.40;;;4.00;72.71
59939;BME280;45801;51.810;19.444;2023-11-21T07:49:10;98581.25;;;4.00;72.98
59939;BME280;45801;51.810;19.444;2023-11-21T07:51:37;98587.67;;;4.00;73.24
59939;BME280;45801;51.810;19.444;2023-11-21T07:54:04;98591.23;;;4.02;72.91
59939;BME280;45801;51.810;19.444;2023-11-21T07:56:32;98593.60;;;4.04;72.77
59939;BME280;45801;51.810;19.444;2023-11-21T07:58:59;98596.21;;;4.04;72.59
59939;BME280;45801;51.810;19.444;2023-11-21T08:01:26;98593.92;;;4.03;72.30
59939;BME280;45801;51.810;19.444;2023-11-21T08:03:54;98591.11;;;4.02;72.43
59939;BME280;45801;51.810;19.444;2023-11-21T08:06:23;98595.27;;;4.00;72.26
59939;BME280;45801;51.810;19.444;2023-11-21T08:08:51;98600.23;;;3.96;72.60
59939;BME280;45801;51.810;19.444;2023-11-21T08:11:18;98602.05;;;3.91;72.60
59939;BME280;45801;51.810;19.444;2023-11-21T08:13:45;98602.48;;;3.84;72.06
59939;BME280;45801;51.810;19.444;2023-11-21T08:16:13;98606.80;;;3.81;72.84
59939;BME280;45801;51.810;19.444;2023-11-21T08:18:40;98598.90;;;3.85;73.14
59939;BME280;45801;51.810;19.444;2023-11-21T08:21:07;98598.72;;;4.11;74.11
59939;BME280;45801;51.810;19.444;2023-11-21T08:23:34;98596.99;;;4.57;74.24
59939;BME280;45801;51.810;19.444;2023-11-21T08:26:01;98599.64;;;4.99;73.75
59939;BME280;45801;51.810;19.444;2023-11-21T08:28:29;98601.95;;;5.29;73.02
59939;BME280;45801;51.810;19.444;2023-11-21T08:30:57;98605.44;;;5.48;71.40
59939;BME280;45801;51.810;19.444;2023-11-21T08:33:24;98608.59;;;5.49;69.67
59939;BME280;45801;51.810;19.444;2023-11-21T08:35:51;98612.73;;;5.35;69.33
59939;BME280;45801;51.810;19.444;2023-11-21T08:38:17;98615.44;;;5.21;69.24
59939;BME280;45801;51.810;19.444;2023-11-21T08:40:44;98614.84;;;5.10;70.06
59939;BME280;45801;51.810;19.444;2023-11-21T08:43:11;98620.56;;;5.00;69.54
59939;BME280;45801;51.810;19.444;2023-11-21T08:45:38;98624.02;;;4.88;69.52
59939;BME280;45801;51.810;19.444;2023-11-21T08:48:05;98620.14;;;4.77;70.09
59939;BME280;45801;51.810;19.444;2023-11-21T08:50:32;98624.23;;;4.67;70.47
59939;BME280;45801;51.810;19.444;2023-11-21T08:52:59;98628.74;;;4.60;71.09
59939;BME280;45801;51.810;19.444;2023-11-21T08:55:25;98632.52;;;4.54;70.99
59939;BME280;45801;51.810;19.444;2023-11-21T08:57:52;98634.76;;;4.41;70.49
59939;BME280;45801;51.810;19.444;2023-11-21T09:00:18;98637.69;;;4.32;71.15
59939;BME280;45801;51.810;19.444;2023-11-21T09:02:45;98640.45;;;4.29;71.67
59939;BME280;45801;51.810;19.444;2023-11-21T09:05:13;98639.17;;;4.25;71.46
59939;BME280;45801;51.810;19.444;2023-11-21T09:07:41;98644.84;;;4.21;71.31
59939;BME280;45801;51.810;19.444;2023-11-21T09:10:08;98648.42;;;4.17;71.47
59939;BME280;45801;51.810;19.444;2023-11-21T09:12:36;98650.13;;;4.16;71.31
59939;BME280;45801;51.810;19.444;2023-11-21T09:15:07;98654.72;;;4.12;71.06
59939;BME280;45801;51.810;19.444;2023-11-21T09:17:36;98654.13;;;4.11;71.50
59939;BME280;45801;51.810;19.444;2023-11-21T09:20:03;98653.27;;;4.11;71.43
59939;BME280;45801;51.810;19.444;2023-11-21T09:22:32;98654.98;;;4.11;71.04
59939;BME280;45801;51.810;19.444;2023-11-21T09:24:58;98656.71;;;4.08;70.97
59939;BME280;45801;51.810;19.444;2023-11-21T09:27:25;98662.08;;;4.07;71.30
59939;BME280;45801;51.810;19.444;2023-11-21T09:29:54;98661.73;;;4.07;70.99
59939;BME280;45801;51.810;19.444;2023-11-21T09:32:21;98658.59;;;4.01;70.94
59939;BME280;45801;51.810;19.444;2023-11-21T09:34:51;98662.52;;;4.00;71.28
59939;BME280;45801;51.810;19.444;2023-11-21T09:37:17;98664.11;;;3.98;71.54
59939;BME280;45801;51.810;19.444;2023-11-21T09:39:45;98663.13;;;3.96;71.30
59939;BME280;45801;51.810;19.444;2023-11-21T09:42:21;98660.98;;;3.95;71.52
59939;BME280;45801;51.810;19.444;2023-11-21T09:45:00;98657.80;;;3.94;71.52
59939;BME280;45801;51.810;19.444;2023-11-21T09:47:32;98654.71;;;3.91;71.71
59939;BME280;45801;51.810;19.444;2023-11-21T09:50:02;98659.16;;;3.90;71.74
59939;BME280;45801;51.810;19.444;2023-11-21T09:52:29;98658.84;;;3.91;71.50
59939;BME280;45801;51.810;19.444;2023-11-21T09:55:00;98666.72;;;3.93;71.56
59939;BME280;45801;51.810;19.444;2023-11-21T09:57:28;98665.58;;;3.93;71.80
59939;BME280;45801;51.810;19.444;2023-11-21T09:59:57;98670.71;;;3.95;72.01
59939;BME280;45801;51.810;19.444;2023-11-21T10:02:28;98668.56;;;3.97;71.90
59939;BME280;45801;51.810;19.444;2023-11-21T10:04:59;98673.11;;;3.98;71.53
59939;BME280;45801;51.810;19.444;2023-11-21T10:07:28;98675.05;;;3.96;71.55
59939;BME280;45801;51.810;19.444;2023-11-21T10:09:55;98678.02;;;3.96;71.82
59939;BME280;45801;51.810;19.444;2023-11-21T10:12:23;98678.90;;;3.96;71.73
59939;BME280;45801;51.810;19.444;2023-11-21T10:14:50;98682.36;;;3.96;72.13
59939;BME280;45801;51.810;19.444;2023-11-21T10:17:19;98682.02;;;3.96;72.26
59939;BME280;45801;51.810;19.444;2023-11-21T10:19:47;98682.59;;;4.00;71.96
59939;BME280;45801;51.810;19.444;2023-11-21T10:22:15;98680.45;;;3.99;72.01
59939;BME280;45801;51.810;19.444;2023-11-21T10:24:42;98678.29;;;3.97;71.87
59939;BME280;45801;51.810;19.444;2023-11-21T10:27:10;98675.94;;;3.99;72.10
59939;BME280;45801;51.810;19.444;2023-11-21T10:29:36;98679.60;;;3.99;71.79
59939;BME280;45801;51.810;19.444;2023-11-21T10:32:03;98685.01;;;3.97;71.88
59939;BME280;45801;51.810;19.444;2023-11-21T10:34:30;98688.23;;;3.96;71.97
59939;BME280;45801;51.810;19.444;2023-11-21T10:36:57;98689.89;;;3.97;71.79
59939;BME280;45801;51.810;19.444;2023-11-21T10:39:24;98687.88;;;3.96;71.81
59939;BME280;45801;51.810;19.444;2023-11-21T10:41:56;98688.89;;;3.92;71.71
59939;BME280;45801;51.810;19.444;2023-11-21T10:44:23;98694.49;;;3.90;71.51
59939;BME280;45801;51.810;19.444;2023-11-21T10:46:52;98699.40;;;3.94;72.53
59939;BME280;45801;51.810;19.444;2023-11-21T10:49:24;98698.59;;;4.03;72.02
59939;BME280;45801;51.810;19.444;2023-11-21T10:51:53;98700.34;;;4.01;71.26
59939;BME280;45801;51.810;19.444;2023-11-21T10:54:20;98701.87;;;3.98;71.56
59939;BME280;45801;51.810;19.444;2023-11-21T10:56:50;98704.89;;;3.96;71.79
59939;BME280;45801;51.810;19.444;2023-11-21T10:59:20;98712.52;;;3.93;71.56
59939;BME280;45801;51.810;19.444;2023-11-21T11:01:51;98716.34;;;3.88;71.36
59939;BME280;45801;51.810;19.444;2023-11-21T11:04:19;98714.69;;;3.83;71.59
59939;BME280;45801;51.810;19.444;2023-11-21T11:06:51;98718.73;;;3.93;71.60
59939;BME280;45801;51.810;19.444;2023-11-21T11:09:20;98724.42;;;3.92;70.41
59939;BME280;45801;51.810;19.444;2023-11-21T11:11:47;98724.78;;;3.86;70.73
59939;BME280;45801;51.810;19.444;2023-11-21T11:14:15;98725.44;;;3.81;70.73
59939;BME280;45801;51.810;19.444;2023-11-21T11:16:43;98724.47;;;3.76;71.03
59939;BME280;45801;51.810;19.444;2023-11-21T11:19:10;98718.64;;;3.77;71.18
59939;BME280;45801;51.810;19.444;2023-11-21T11:21:53;98716.77;;;3.75;70.79
59939;BME280;45801;51.810;19.444;2023-11-21T11:27:40;98715.70;;;3.71;70.75
59939;BME280;45801;51.810;19.444;2023-11-21T11:38:33;98726.56;;;3.68;70.93
59939;BME280;45801;51.810;19.444;2023-11-21T11:41:04;98727.06;;;3.67;70.92
59939;BME280;45801;51.810;19.444;2023-11-21T11:43:32;98726.66;;;3.69;70.72
59939;BME280;45801;51.810;19.444;2023-11-21T11:46:03;98728.40;;;3.72;70.76
59939;BME280;45801;51.810;19.444;2023-11-21T11:48:35;98732.50;;;3.71;70.61
59939;BME280;45801;51.810;19.444;2023-11-21T11:51:10;98739.80;;;3.66;70.56
59939;BME280;45801;51.810;19.444;2023-11-21T11:53:43;98741.36;;;3.63;70.67
59939;BME280;45801;51.810;19.444;2023-11-21T11:56:44;98743.33;;;3.59;70.67
59939;BME280;45801;51.810;19.444;2023-11-21T11:59:11;98743.14;;;3.50;70.47
59939;BME280;45801;51.810;19.444;2023-11-21T12:01:45;98741.48;;;3.43;70.72
59939;BME280;45801;51.810;19.444;2023-11-21T12:06:52;98742.02;;;3.39;70.77
59939;BME280;45801;51.810;19.444;2023-11-21T12:09:22;98744.12;;;3.39;70.65
59939;BME280;45801;51.810;19.444;2023-11-21T12:11:50;98748.58;;;3.38;70.50
59939;BME280;45801;51.810;19.444;2023-11-21T12:14:17;98748.39;;;3.38;71.04
59939;BME280;45801;51.810;19.444;2023-11-21T12:16:44;98744.36;;;3.40;70.87
59939;BME280;45801;51.810;19.444;2023-11-21T12:19:12;98750.59;;;3.40;70.67
59939;BME280;45801;51.810;19.444;2023-11-21T12:21:39;98757.72;;;3.37;70.85
59939;BME280;45801;51.810;19.444;2023-11-21T12:24:10;98760.09;;;3.33;70.58
59939;BME280;45801;51.810;19.444;2023-11-21T12:26:41;98763.11;;;3.32;70.59
59939;BME280;45801;51.810;19.444;2023-11-21T12:29:09;98763.59;;;3.31;70.43
59939;BME280;45801;51.810;19.444;2023-11-21T12:31:37;98764.05;;;3.25;70.29
59939;BME280;45801;51.810;19.444;2023-11-21T12:34:04;98765.80;;;3.20;70.47
59939;BME280;45801;51.810;19.444;2023-11-21T12:36:33;98763.46;;;3.18;70.50
59939;BME280;45801;51.810;19.444;2023-11-21T12:39:01;98759.64;;;3.18;70.49
59939;BME280;45801;51.810;19.444;2023-11-21T12:41:29;98759.96;;;3.18;70.57
59939;BME280;45801;51.810;19.444;2023-11-21T12:43:56;98756.48;;;3.17;70.70
59939;BME280;45801;51.810;19.444;2023-11-21T12:46:24;98753.15;;;3.17;71.02
59939;BME280;45801;51.810;19.444;2023-11-21T12:48:55;98752.73;;;3.16;70.93
59939;BME280;45801;51.810;19.444;2023-11-21T12:51:23;98754.02;;;3.20;70.75
59939;BME280;45801;51.810;19.444;2023-11-21T12:53:49;98757.13;;;3.14;70.25
59939;BME280;45801;51.810;19.444;2023-11-21T12:56:16;98761.11;;;3.12;70.59
59939;BME280;45801;51.810;19.444;2023-11-21T12:58:45;98767.96;;;3.13;70.56
59939;BME280;45801;51.810;19.444;2023-11-21T13:01:17;98773.92;;;3.15;70.57
59939;BME280;45801;51.810;19.444;2023-11-21T13:03:48;98784.15;;;3.12;70.31
59939;BME280;45801;51.810;19.444;2023-11-21T13:06:17;98786.41;;;3.09;70.33
59939;BME280;45801;51.810;19.444;2023-11-21T13:08:45;98791.84;;;3.03;70.54
59939;BME280;45801;51.810;19.444;2023-11-21T13:11:13;98802.09;;;3.00;70.78
59939;BME280;45801;51.810;19.444;2023-11-21T13:13:42;98801.89;;;3.00;70.89
59939;BME280;45801;51.810;19.444;2023-11-21T13:16:11;98802.71;;;2.92;71.18
59939;BME280;45801;51.810;19.444;2023-11-21T13:18:39;98806.31;;;2.91;71.44